createdAt,value
2017-10-05T00:00:22.274Z,15.1
2017-10-05T00:01:25.059Z,15
2017-10-05T00:02:27.483Z,15
2017-10-05T00:03:29.917Z,15.1
2017-10-05T00:04:32.352Z,15.1
2017-10-05T00:05:35.109Z,15
2017-10-05T00:06:37.539Z,15
2017-10-05T00:07:39.980Z,15
2017-10-05T00:08:42.407Z,15.1
2017-10-05T00:09:44.840Z,15.1
2017-10-05T00:10:47.947Z,15.1
2017-10-05T00:11:50.376Z,15
2017-10-05T00:12:52.806Z,15.1
2017-10-05T00:13:55.240Z,15
2017-10-05T00:14:57.673Z,15.1
2017-10-05T00:16:00.103Z,15.1
2017-10-05T00:17:02.534Z,15
2017-10-05T00:18:04.969Z,15.1
2017-10-05T00:19:07.398Z,15.1
2017-10-05T00:20:09.811Z,15.1
2017-10-05T00:21:12.237Z,15.1
2017-10-05T00:22:14.992Z,15.1
2017-10-05T00:23:17.418Z,15.1
2017-10-05T00:24:19.847Z,15.1
2017-10-05T00:25:22.612Z,15.1
2017-10-05T00:26:25.044Z,15.1
2017-10-05T00:27:27.469Z,15
2017-10-05T00:28:30.226Z,15.1
2017-10-05T00:29:32.663Z,15.1
2017-10-05T00:30:35.433Z,15.1
2017-10-05T00:31:37.855Z,15
2017-10-05T00:32:40.282Z,15.1
2017-10-05T00:33:43.067Z,15.1
2017-10-05T00:34:45.491Z,15.1
2017-10-05T00:35:47.919Z,15.1
2017-10-05T00:36:50.343Z,15.1
2017-10-05T00:37:52.772Z,15.1
2017-10-05T00:38:55.212Z,15.1
2017-10-05T00:39:57.981Z,15.1
2017-10-05T00:41:00.395Z,15.1
2017-10-05T00:42:02.841Z,15.1
2017-10-05T00:43:05.258Z,15.1
2017-10-05T00:44:07.685Z,15.1
2017-10-05T00:45:10.108Z,15.1
2017-10-05T00:46:12.547Z,15.1
2017-10-05T00:47:14.978Z,15.2
2017-10-05T00:48:17.400Z,15.2
2017-10-05T00:49:19.827Z,15.2
2017-10-05T00:50:22.250Z,15.2
2017-10-05T00:51:24.686Z,15.2
2017-10-05T00:52:27.117Z,15.2
2017-10-05T00:53:29.542Z,15.2
2017-10-05T00:54:31.972Z,15.2
2017-10-05T00:55:34.410Z,15.2
2017-10-05T00:56:36.833Z,15.2
2017-10-05T00:57:39.270Z,15.2
2017-10-05T00:58:41.700Z,15.2
2017-10-05T00:59:44.131Z,15.2
2017-10-05T01:00:46.557Z,15.2
2017-10-05T01:01:48.989Z,15.2
2017-10-05T01:02:51.405Z,15.2
2017-10-05T01:03:53.842Z,15.2
2017-10-05T01:04:56.259Z,15.2
2017-10-05T01:05:58.693Z,15.2
2017-10-05T01:07:01.116Z,15.2
2017-10-05T01:08:03.547Z,15.2
2017-10-05T01:09:05.973Z,15.2
2017-10-05T01:10:08.404Z,15.2
2017-10-05T01:11:10.872Z,15.2
2017-10-05T01:12:13.297Z,15.2
2017-10-05T01:13:15.730Z,15.2
2017-10-05T01:14:18.158Z,15.2
2017-10-05T01:15:20.929Z,15.2
2017-10-05T01:16:23.358Z,15.2
2017-10-05T01:17:26.127Z,15.2
2017-10-05T01:18:28.573Z,15.2
2017-10-05T01:19:30.985Z,15.1
2017-10-05T01:20:33.745Z,15.1
2017-10-05T01:21:36.179Z,15.1
2017-10-05T01:22:38.943Z,15.1
2017-10-05T01:23:41.378Z,15.1
2017-10-05T01:24:43.798Z,15.1
2017-10-05T01:25:46.235Z,15.1
2017-10-05T01:26:48.680Z,15.1
2017-10-05T01:27:51.091Z,15.1
2017-10-05T01:28:53.520Z,15.1
2017-10-05T01:29:55.953Z,15.1
2017-10-05T01:30:58.379Z,15.1
2017-10-05T01:32:00.808Z,15.1
2017-10-05T01:33:03.228Z,15.1
2017-10-05T01:34:05.665Z,15.1
2017-10-05T01:35:08.087Z,15.1
2017-10-05T01:36:10.516Z,15.1
2017-10-05T01:37:13.288Z,15.1
2017-10-05T01:38:15.722Z,15.1
2017-10-05T01:39:18.150Z,15.1
2017-10-05T01:40:20.580Z,15.1
2017-10-05T01:41:23.341Z,15.1
2017-10-05T01:42:25.766Z,15.1
2017-10-05T01:43:28.190Z,15.1
2017-10-05T01:44:30.614Z,15.1
2017-10-05T01:45:33.049Z,15.1
2017-10-05T01:46:35.478Z,15.1
2017-10-05T01:47:37.896Z,15.1
2017-10-05T01:48:40.331Z,15
2017-10-05T01:49:42.759Z,15
2017-10-05T01:50:45.188Z,15
2017-10-05T01:51:47.618Z,15
2017-10-05T01:52:50.033Z,15
2017-10-05T01:53:52.462Z,15
2017-10-05T01:54:54.894Z,15
2017-10-05T01:55:57.320Z,15.1
2017-10-05T01:56:59.753Z,15.1
2017-10-05T01:58:02.178Z,15.1
2017-10-05T01:59:04.595Z,15.1
2017-10-05T02:00:07.028Z,15.1
2017-10-05T02:01:09.458Z,15.1
2017-10-05T02:02:11.875Z,15.1
2017-10-05T02:03:14.309Z,15.1
2017-10-05T02:04:16.740Z,15.1
2017-10-05T02:05:19.504Z,15.1
2017-10-05T02:06:21.943Z,15.1
2017-10-05T02:07:24.362Z,15.1
2017-10-05T02:08:26.790Z,15.1
2017-10-05T02:09:29.228Z,15.1
2017-10-05T02:10:31.658Z,15.1
2017-10-05T02:11:34.071Z,15.1
2017-10-05T02:12:36.496Z,15.1
2017-10-05T02:13:38.926Z,15.1
2017-10-05T02:14:41.366Z,15.1
2017-10-05T02:15:43.797Z,15.1
2017-10-05T02:16:46.233Z,15.1
2017-10-05T02:17:48.658Z,15.1
2017-10-05T02:18:51.438Z,15.1
2017-10-05T02:19:53.864Z,15.1
2017-10-05T02:20:56.281Z,15.1
2017-10-05T02:21:58.699Z,15.1
2017-10-05T02:23:01.127Z,15.1
2017-10-05T02:24:03.558Z,15.1
2017-10-05T02:25:06.333Z,15.1
2017-10-05T02:26:08.749Z,15.1
2017-10-05T02:27:11.176Z,15.1
2017-10-05T02:28:13.970Z,15.1
2017-10-05T02:29:16.399Z,15.1
2017-10-05T02:30:18.823Z,15.1
2017-10-05T02:31:21.601Z,15.1
2017-10-05T02:32:24.031Z,15.2
2017-10-05T02:33:26.466Z,15.2
2017-10-05T02:34:28.893Z,15.2
2017-10-05T02:35:31.649Z,15.2
2017-10-05T02:36:34.421Z,15.2
2017-10-05T02:37:36.848Z,15.2
2017-10-05T02:38:39.275Z,15.2
2017-10-05T02:39:41.702Z,15.3
2017-10-05T02:40:44.131Z,15.2
2017-10-05T02:41:46.941Z,15.2
2017-10-05T02:42:49.357Z,15.3
2017-10-05T02:43:51.793Z,15.3
2017-10-05T02:44:54.228Z,15.3
2017-10-05T02:45:56.671Z,15.3
2017-10-05T02:46:59.091Z,15.3
2017-10-05T02:48:01.515Z,15.3
2017-10-05T02:49:03.944Z,15.3
2017-10-05T02:50:06.378Z,15.3
2017-10-05T02:51:08.798Z,15.3
2017-10-05T02:52:11.225Z,15.3
2017-10-05T02:53:13.646Z,15.3
2017-10-05T02:54:16.085Z,15.3
2017-10-05T02:55:18.513Z,15.3
2017-10-05T02:56:21.284Z,15.3
2017-10-05T02:57:23.702Z,15.3
2017-10-05T02:58:26.136Z,15.3
2017-10-05T02:59:28.560Z,15.3
2017-10-05T03:00:30.987Z,15.3
2017-10-05T03:01:33.414Z,15.3
2017-10-05T03:02:36.213Z,15.2
2017-10-05T03:03:38.647Z,15.3
2017-10-05T03:04:41.081Z,15.3
2017-10-05T03:05:43.509Z,15.3
2017-10-05T03:06:46.270Z,15.3
2017-10-05T03:07:48.703Z,15.3
2017-10-05T03:08:51.138Z,15.3
2017-10-05T03:09:53.912Z,15.3
2017-10-05T03:10:56.339Z,15.3
2017-10-05T03:11:58.762Z,15.3
2017-10-05T03:13:01.190Z,15.3
2017-10-05T03:14:03.618Z,15.3
2017-10-05T03:15:06.048Z,15.3
2017-10-05T03:16:08.466Z,15.3
2017-10-05T03:17:10.904Z,15.3
2017-10-05T03:18:13.323Z,15.3
2017-10-05T03:19:15.751Z,15.3
2017-10-05T03:20:18.184Z,15.3
2017-10-05T03:21:20.616Z,15.3
2017-10-05T03:22:23.385Z,15.3
2017-10-05T03:23:25.838Z,15.3
2017-10-05T03:24:28.240Z,15.3
2017-10-05T03:25:30.668Z,15.3
2017-10-05T03:26:33.100Z,15.2
2017-10-05T03:27:35.531Z,15.2
2017-10-05T03:28:38.293Z,15.2
2017-10-05T03:29:40.722Z,15.2
2017-10-05T03:30:43.137Z,15.2
2017-10-05T03:31:45.575Z,15.2
2017-10-05T03:32:48.005Z,15.2
2017-10-05T03:33:50.429Z,15.2
2017-10-05T03:34:52.860Z,15.2
2017-10-05T03:35:55.286Z,15.2
2017-10-05T03:36:57.706Z,15.2
2017-10-05T03:38:00.143Z,15.2
2017-10-05T03:39:02.566Z,15.2
2017-10-05T03:40:04.990Z,15.2
2017-10-05T03:41:07.423Z,15.2
2017-10-05T03:42:09.850Z,15.2
2017-10-05T03:43:12.280Z,15.2
2017-10-05T03:44:15.038Z,15.2
2017-10-05T03:45:17.473Z,15.2
2017-10-05T03:46:20.244Z,15.2
2017-10-05T03:47:22.671Z,15.2
2017-10-05T03:48:25.099Z,15.2
2017-10-05T03:49:27.523Z,15.1
2017-10-05T03:50:29.947Z,15.1
2017-10-05T03:51:32.388Z,15.1
2017-10-05T03:52:34.818Z,15.1
2017-10-05T03:53:37.582Z,15.1
2017-10-05T03:54:40.015Z,15.1
2017-10-05T03:55:42.795Z,15.1
2017-10-05T03:56:45.228Z,15.1
2017-10-05T03:57:47.662Z,15.1
2017-10-05T03:58:50.422Z,15.1
2017-10-05T03:59:52.849Z,15
2017-10-05T04:00:55.279Z,15.1
2017-10-05T04:01:57.703Z,15.1
2017-10-05T04:03:00.133Z,15.1
2017-10-05T04:04:02.561Z,15.1
2017-10-05T04:05:04.983Z,15.1
2017-10-05T04:06:07.421Z,15.1
2017-10-05T04:07:09.852Z,15.1
2017-10-05T04:08:12.272Z,15.1
2017-10-05T04:09:14.694Z,15.1
2017-10-05T04:10:17.129Z,15.1
2017-10-05T04:11:19.552Z,15.1
2017-10-05T04:12:21.979Z,15.1
2017-10-05T04:13:24.401Z,15.1
2017-10-05T04:14:26.834Z,15.1
2017-10-05T04:15:29.251Z,15.1
2017-10-05T04:16:31.686Z,15.1
2017-10-05T04:17:34.104Z,15.1
2017-10-05T04:18:36.531Z,15.1
2017-10-05T04:19:38.962Z,15.1
2017-10-05T04:20:41.733Z,15.1
2017-10-05T04:21:44.158Z,15.1
2017-10-05T04:22:46.594Z,15.1
2017-10-05T04:23:49.022Z,15.1
2017-10-05T04:24:51.455Z,15.1
2017-10-05T04:25:53.886Z,15.1
2017-10-05T04:26:56.320Z,15.1
2017-10-05T04:27:58.745Z,15.1
2017-10-05T04:29:01.179Z,15.1
2017-10-05T04:30:03.964Z,15.2
2017-10-05T04:31:06.404Z,15.1
2017-10-05T04:32:08.819Z,15.2
2017-10-05T04:33:11.247Z,15.2
2017-10-05T04:34:13.673Z,15.2
2017-10-05T04:35:16.102Z,15.1
2017-10-05T04:36:18.529Z,15.1
2017-10-05T04:37:20.969Z,15.1
2017-10-05T04:38:23.399Z,15.1
2017-10-05T04:39:25.819Z,15.1
2017-10-05T04:40:28.251Z,15.1
2017-10-05T04:41:30.678Z,15.1
2017-10-05T04:42:33.106Z,15.1
2017-10-05T04:43:35.869Z,15.1
2017-10-05T04:44:38.300Z,15.1
2017-10-05T04:45:40.731Z,15.1
2017-10-05T04:46:43.160Z,15.1
2017-10-05T04:47:45.934Z,15.1
2017-10-05T04:48:48.355Z,15.1
2017-10-05T04:49:50.783Z,15.1
2017-10-05T04:50:53.221Z,15.1
2017-10-05T04:51:55.645Z,15.1
2017-10-05T04:52:58.073Z,15.1
2017-10-05T04:54:00.492Z,15.1
2017-10-05T04:55:02.926Z,15.1
2017-10-05T04:56:05.363Z,15.1
2017-10-05T04:57:07.792Z,15.1
2017-10-05T04:58:10.219Z,15.1
2017-10-05T04:59:12.647Z,15.1
2017-10-05T05:00:15.072Z,15.1
2017-10-05T05:01:17.506Z,15
2017-10-05T05:02:19.933Z,15
2017-10-05T05:03:22.362Z,15
2017-10-05T05:04:24.796Z,15
2017-10-05T05:05:27.229Z,15
2017-10-05T05:06:29.653Z,15
2017-10-05T05:07:32.084Z,15
2017-10-05T05:08:34.605Z,15.1
2017-10-05T05:09:37.032Z,15
2017-10-05T05:10:39.451Z,15.1
2017-10-05T05:11:41.894Z,15.1
2017-10-05T05:12:44.322Z,15.1
2017-10-05T05:13:47.117Z,15.1
2017-10-05T05:14:49.551Z,15.1
2017-10-05T05:15:51.980Z,15.1
2017-10-05T05:16:54.412Z,15.1
2017-10-05T05:17:56.846Z,15.1
2017-10-05T05:18:59.610Z,15.1
2017-10-05T05:20:02.036Z,15.1
2017-10-05T05:21:04.797Z,15.1
2017-10-05T05:22:07.226Z,15.1
2017-10-05T05:23:09.644Z,15.1
2017-10-05T05:24:12.088Z,15.1
2017-10-05T05:25:14.513Z,15.1
2017-10-05T05:26:16.945Z,15.1
2017-10-05T05:27:19.378Z,15.1
2017-10-05T05:28:21.807Z,15.1
2017-10-05T05:29:24.231Z,15.1
2017-10-05T05:30:26.672Z,15.1
2017-10-05T05:31:29.096Z,15.1
2017-10-05T05:32:31.529Z,15.1
2017-10-05T05:33:33.968Z,15.1
2017-10-05T05:34:36.398Z,15.1
2017-10-05T05:35:38.825Z,15.1
2017-10-05T05:36:41.262Z,15.1
2017-10-05T05:37:43.693Z,15.1
2017-10-05T05:38:46.454Z,15.1
2017-10-05T05:39:48.884Z,15.1
2017-10-05T05:40:51.311Z,15.1
2017-10-05T05:41:53.741Z,15.1
2017-10-05T05:42:56.169Z,15.1
2017-10-05T05:43:58.600Z,15.1
2017-10-05T05:45:01.025Z,15.1
2017-10-05T05:46:03.464Z,15.1
2017-10-05T05:47:05.891Z,15.1
2017-10-05T05:48:08.313Z,15.1
2017-10-05T05:49:10.741Z,15.1
2017-10-05T05:50:13.163Z,15.1
2017-10-05T05:51:15.598Z,15.1
2017-10-05T05:52:18.025Z,15.1
2017-10-05T05:53:20.450Z,15.1
2017-10-05T05:54:22.875Z,15.1
2017-10-05T05:55:25.314Z,15.1
2017-10-05T05:56:27.744Z,15
2017-10-05T05:57:30.497Z,15
2017-10-05T05:58:32.923Z,15
2017-10-05T05:59:35.353Z,15.1
2017-10-05T06:00:37.781Z,15
2017-10-05T06:01:40.210Z,15.1
2017-10-05T06:02:42.626Z,15
2017-10-05T06:03:45.054Z,15.1
2017-10-05T06:04:47.490Z,15.1
2017-10-05T06:05:49.915Z,15.1
2017-10-05T06:06:52.337Z,15.1
2017-10-05T06:07:54.770Z,15.1
2017-10-05T06:08:57.201Z,15.1
2017-10-05T06:09:59.627Z,15.1
2017-10-05T06:11:02.056Z,15.1
2017-10-05T06:12:04.495Z,15.2
2017-10-05T06:13:06.923Z,15.2
2017-10-05T06:14:09.348Z,15.1
2017-10-05T06:15:11.773Z,15.2
2017-10-05T06:16:14.198Z,15.2
2017-10-05T06:17:16.632Z,15.2
2017-10-05T06:18:19.060Z,15.2
2017-10-05T06:19:21.475Z,15.2
2017-10-05T06:20:23.904Z,15.2
2017-10-05T06:21:26.334Z,15.2
2017-10-05T06:22:28.759Z,15.2
2017-10-05T06:23:31.182Z,15.2
2017-10-05T06:24:33.617Z,15.2
2017-10-05T06:25:36.381Z,15.2
2017-10-05T06:26:38.818Z,15.2
2017-10-05T06:27:41.246Z,15.2
2017-10-05T06:28:43.664Z,15.3
2017-10-05T06:29:46.097Z,15.3
2017-10-05T06:30:48.526Z,15.3
2017-10-05T06:31:50.954Z,15.3
2017-10-05T06:32:53.384Z,15.3
2017-10-05T06:33:55.815Z,15.3
2017-10-05T06:34:58.240Z,15.3
2017-10-05T06:36:00.678Z,15.3
2017-10-05T06:37:03.126Z,15.3
2017-10-05T06:38:05.550Z,15.3
2017-10-05T06:39:07.976Z,15.3
2017-10-05T06:40:10.414Z,15.3
2017-10-05T06:41:13.176Z,15.3
2017-10-05T06:42:15.943Z,15.3
2017-10-05T06:43:18.377Z,15.3
2017-10-05T06:44:20.796Z,15.2
2017-10-05T06:45:23.595Z,15.2
2017-10-05T06:46:26.024Z,15.2
2017-10-05T06:47:28.455Z,15.2
2017-10-05T06:48:30.881Z,15.2
2017-10-05T06:49:33.309Z,15.2
2017-10-05T06:50:35.726Z,15.2
2017-10-05T06:51:38.506Z,15.2
2017-10-05T06:52:41.552Z,15.2
2017-10-05T06:53:43.990Z,15.2
2017-10-05T06:54:46.426Z,15.2
2017-10-05T06:55:48.859Z,15.2
2017-10-05T06:56:51.281Z,15.2
2017-10-05T06:57:53.704Z,15.2
2017-10-05T06:58:56.128Z,15.2
2017-10-05T06:59:58.568Z,15.2
2017-10-05T07:01:00.995Z,15.2
2017-10-05T07:02:03.759Z,15.2
2017-10-05T07:03:06.178Z,15.2
2017-10-05T07:04:08.619Z,15.2
2017-10-05T07:05:11.045Z,15.3
2017-10-05T07:06:13.822Z,15.2
2017-10-05T07:07:16.236Z,15.2
2017-10-05T07:08:18.665Z,15.3
2017-10-05T07:09:21.105Z,15.3
2017-10-05T07:10:23.522Z,15.3
2017-10-05T07:11:25.941Z,15.3
2017-10-05T07:12:28.369Z,15.3
2017-10-05T07:13:31.139Z,15.3
2017-10-05T07:14:33.573Z,15.3
2017-10-05T07:15:36.002Z,15.3
2017-10-05T07:16:38.423Z,15.3
2017-10-05T07:17:40.854Z,15.3
2017-10-05T07:18:43.661Z,15.3
2017-10-05T07:19:46.084Z,15.3
2017-10-05T07:20:48.513Z,15.3
2017-10-05T07:21:51.290Z,15.3
2017-10-05T07:22:53.719Z,15.3
2017-10-05T07:23:56.147Z,15.3
2017-10-05T07:24:58.913Z,15.3
2017-10-05T07:26:01.331Z,15.3
2017-10-05T07:27:03.765Z,15.3
2017-10-05T07:28:06.186Z,15.3
2017-10-05T07:29:08.609Z,15.4
2017-10-05T07:30:11.046Z,15.4
2017-10-05T07:31:13.476Z,15.4
2017-10-05T07:32:15.904Z,15.4
2017-10-05T07:33:18.337Z,15.4
2017-10-05T07:34:20.760Z,15.3
2017-10-05T07:35:23.192Z,15.4
2017-10-05T07:36:25.971Z,15.4
2017-10-05T07:37:29.082Z,15.3
2017-10-05T07:38:31.515Z,15.3
2017-10-05T07:39:33.946Z,15.3
2017-10-05T07:40:36.374Z,15.3
2017-10-05T07:41:38.809Z,15.3
2017-10-05T07:42:41.229Z,15.3
2017-10-05T07:43:44.008Z,15.3
2017-10-05T07:44:46.429Z,15.3
2017-10-05T07:45:48.858Z,15.3
2017-10-05T07:46:51.290Z,15.3
2017-10-05T07:47:53.715Z,15.3
2017-10-05T07:48:56.480Z,15.3
2017-10-05T07:49:58.913Z,15.3
2017-10-05T07:51:01.668Z,15.3
2017-10-05T07:52:04.107Z,15.3
2017-10-05T07:53:06.534Z,15.3
2017-10-05T07:54:08.954Z,15.3
2017-10-05T07:55:11.381Z,15.3
2017-10-05T07:56:13.807Z,15.3
2017-10-05T07:57:16.242Z,15.3
2017-10-05T07:58:18.675Z,15.2
2017-10-05T07:59:21.091Z,15.2
2017-10-05T08:00:23.518Z,15.2
2017-10-05T08:01:25.959Z,15.2
2017-10-05T08:02:28.382Z,15.2
2017-10-05T08:03:30.815Z,15.2
2017-10-05T08:04:33.229Z,15.2
2017-10-05T08:05:35.669Z,15.2
2017-10-05T08:06:38.073Z,15.2
2017-10-05T08:07:40.498Z,15.3
2017-10-05T08:08:42.926Z,15.3
2017-10-05T08:09:45.354Z,15.3
2017-10-05T08:10:47.782Z,15.3
2017-10-05T08:11:50.209Z,15.3
2017-10-05T08:12:52.632Z,15.3
2017-10-05T08:13:55.075Z,15.3
2017-10-05T08:14:57.843Z,15.3
2017-10-05T08:16:00.271Z,15.3
2017-10-05T08:17:02.693Z,15.3
2017-10-05T08:18:05.127Z,15.3
2017-10-05T08:19:07.562Z,15.3
2017-10-05T08:20:09.984Z,15.3
2017-10-05T08:21:12.752Z,15.3
2017-10-05T08:22:15.183Z,15.3
2017-10-05T08:23:17.600Z,15.4
2017-10-05T08:24:20.036Z,15.4
2017-10-05T08:25:22.453Z,15.4
2017-10-05T08:26:24.883Z,15.4
2017-10-05T08:27:27.323Z,15.4
2017-10-05T08:28:29.745Z,15.4
2017-10-05T08:29:32.173Z,15.5
2017-10-05T08:30:34.601Z,15.5
2017-10-05T08:31:37.031Z,15.5
2017-10-05T08:32:39.480Z,15.5
2017-10-05T08:33:42.248Z,15.5
2017-10-05T08:34:44.661Z,15.5
2017-10-05T08:35:47.099Z,15.5
2017-10-05T08:36:49.533Z,15.5
2017-10-05T08:37:51.955Z,15.5
2017-10-05T08:38:54.750Z,15.5
2017-10-05T08:39:57.195Z,15.4
2017-10-05T08:40:59.623Z,15.4
2017-10-05T08:42:02.042Z,15.4
2017-10-05T08:43:04.474Z,15.4
2017-10-05T08:44:06.902Z,15.4
2017-10-05T08:45:09.330Z,15.5
2017-10-05T08:46:11.759Z,15.5
2017-10-05T08:47:14.178Z,15.5
2017-10-05T08:48:16.606Z,15.5
2017-10-05T08:49:19.043Z,15.5
2017-10-05T08:50:21.463Z,15.5
2017-10-05T08:51:23.888Z,15.5
2017-10-05T08:52:26.319Z,15.5
2017-10-05T08:53:28.743Z,15.5
2017-10-05T08:54:31.180Z,15.5
2017-10-05T08:55:33.607Z,15.6
2017-10-05T08:56:36.033Z,15.6
2017-10-05T08:57:39.146Z,15.6
2017-10-05T08:58:41.916Z,15.6
2017-10-05T08:59:44.685Z,15.5
2017-10-05T09:00:47.119Z,15.5
2017-10-05T09:01:49.887Z,15.5
2017-10-05T09:02:52.315Z,15.5
2017-10-05T09:03:54.743Z,15.5
2017-10-05T09:04:57.167Z,15.5
2017-10-05T09:05:59.606Z,15.5
2017-10-05T09:07:02.374Z,15.5
2017-10-05T09:08:04.801Z,15.5
2017-10-05T09:09:07.228Z,15.5
2017-10-05T09:10:09.666Z,15.5
2017-10-05T09:11:12.093Z,15.4
2017-10-05T09:12:14.593Z,15.4
2017-10-05T09:13:17.012Z,15.4
2017-10-05T09:14:19.441Z,15.4
2017-10-05T09:15:21.878Z,15.4
2017-10-05T09:16:24.306Z,15.4
2017-10-05T09:17:26.724Z,15.3
2017-10-05T09:18:29.152Z,15.3
2017-10-05T09:19:31.579Z,15.3
2017-10-05T09:20:34.018Z,15.3
2017-10-05T09:21:36.446Z,15.3
2017-10-05T09:22:38.864Z,15.3
2017-10-05T09:23:41.295Z,15.3
2017-10-05T09:24:43.726Z,15.3
2017-10-05T09:25:46.153Z,15.3
2017-10-05T09:26:48.586Z,15.3
2017-10-05T09:27:51.010Z,15.3
2017-10-05T09:28:53.438Z,15.2
2017-10-05T09:29:55.871Z,15.2
2017-10-05T09:30:58.299Z,15.2
2017-10-05T09:32:00.719Z,15.2
2017-10-05T09:33:03.152Z,15.2
2017-10-05T09:34:05.585Z,15.2
2017-10-05T09:35:08.011Z,15.2
2017-10-05T09:36:10.436Z,15.2
2017-10-05T09:37:12.864Z,15.2
2017-10-05T09:38:15.289Z,15.2
2017-10-05T09:39:17.719Z,15.2
2017-10-05T09:40:50.211Z,15.2
2017-10-05T09:41:52.635Z,15.2
2017-10-05T09:42:55.420Z,15.2
2017-10-05T09:43:57.848Z,15.3
2017-10-05T09:45:00.275Z,15.3
2017-10-05T09:46:02.708Z,15.2
2017-10-05T09:47:05.133Z,15.2
2017-10-05T09:48:07.564Z,15.3
2017-10-05T09:49:09.996Z,15.3
2017-10-05T09:50:12.413Z,15.3
2017-10-05T09:51:14.849Z,15.3
2017-10-05T09:52:17.271Z,15.3
2017-10-05T09:53:19.699Z,15.2
2017-10-05T09:54:22.126Z,15.3
2017-10-05T09:55:24.556Z,15.3
2017-10-05T09:56:26.987Z,15.3
2017-10-05T09:57:29.426Z,15.3
2017-10-05T09:58:31.845Z,15.3
2017-10-05T09:59:34.277Z,15.3
2017-10-05T10:00:36.712Z,15.3
2017-10-05T10:01:39.487Z,15.4
2017-10-05T10:02:42.273Z,15.4
2017-10-05T10:03:44.697Z,15.4
2017-10-05T10:04:47.129Z,15.3
2017-10-05T10:05:49.538Z,15.3
2017-10-05T10:06:52.319Z,15.4
2017-10-05T10:07:54.758Z,15.4
2017-10-05T10:08:57.186Z,15.4
2017-10-05T10:09:59.614Z,15.4
2017-10-05T10:11:02.049Z,15.4
2017-10-05T10:12:04.468Z,15.4
2017-10-05T10:13:06.911Z,15.4
2017-10-05T10:14:09.340Z,15.3
2017-10-05T10:15:11.758Z,15.4
2017-10-05T10:16:14.191Z,15.4
2017-10-05T10:17:16.618Z,15.4
2017-10-05T10:18:19.046Z,15.4
2017-10-05T10:19:21.474Z,15.4
2017-10-05T10:20:23.896Z,15.4
2017-10-05T10:21:26.680Z,15.4
2017-10-05T10:22:29.112Z,15.4
2017-10-05T10:23:31.535Z,15.4
2017-10-05T10:24:33.962Z,15.4
2017-10-05T10:25:36.388Z,15.4
2017-10-05T10:26:38.839Z,15.5
2017-10-05T10:27:41.264Z,15.5
2017-10-05T10:28:43.693Z,15.5
2017-10-05T10:29:46.121Z,15.5
2017-10-05T10:30:48.895Z,15.5
2017-10-05T10:31:51.324Z,15.5
2017-10-05T10:32:53.759Z,15.5
2017-10-05T10:33:56.175Z,15.6
2017-10-05T10:34:58.605Z,15.6
2017-10-05T10:36:01.369Z,15.6
2017-10-05T10:37:03.796Z,15.6
2017-10-05T10:38:06.226Z,15.7
2017-10-05T10:39:09.014Z,15.6
2017-10-05T10:40:11.437Z,15.6
2017-10-05T10:41:13.868Z,15.7
2017-10-05T10:42:16.305Z,15.7
2017-10-05T10:43:19.084Z,15.7
2017-10-05T10:44:21.851Z,15.7
2017-10-05T10:45:24.280Z,15.7
2017-10-05T10:46:26.712Z,15.7
2017-10-05T10:47:29.149Z,15.7
2017-10-05T10:48:31.580Z,15.7
2017-10-05T10:49:34.005Z,15.8
2017-10-05T10:50:36.784Z,15.8
2017-10-05T10:51:39.216Z,15.8
2017-10-05T10:52:41.640Z,15.8
2017-10-05T10:53:44.075Z,15.8
2017-10-05T10:54:46.504Z,15.9
2017-10-05T10:55:48.936Z,15.9
2017-10-05T10:56:51.372Z,15.9
2017-10-05T10:57:53.796Z,15.9
2017-10-05T10:58:56.227Z,15.9
2017-10-05T10:59:58.667Z,16
2017-10-05T11:01:01.098Z,16
2017-10-05T11:02:04.208Z,16
2017-10-05T11:03:07.000Z,16
2017-10-05T11:04:09.425Z,16
2017-10-05T11:05:12.203Z,16
2017-10-05T11:06:14.628Z,16.1
2017-10-05T11:07:17.410Z,16.1
2017-10-05T11:08:20.177Z,16.1
2017-10-05T11:09:22.614Z,16.1
2017-10-05T11:10:25.039Z,16.2
2017-10-05T11:11:27.482Z,16.2
2017-10-05T11:12:29.894Z,16.2
2017-10-05T11:13:32.332Z,16.2
2017-10-05T11:14:34.761Z,16.3
2017-10-05T11:15:37.193Z,16.3
2017-10-05T11:16:39.627Z,16.3
2017-10-05T11:17:42.057Z,16.3
2017-10-05T11:18:44.491Z,16.3
2017-10-05T11:19:46.922Z,16.3
2017-10-05T11:20:49.349Z,16.3
2017-10-05T11:21:51.778Z,16.3
2017-10-05T11:22:54.202Z,16.4
2017-10-05T11:23:56.648Z,16.4
2017-10-05T11:24:59.777Z,16.4
2017-10-05T11:26:02.197Z,16.5
2017-10-05T11:27:04.627Z,16.5
2017-10-05T11:28:07.062Z,16.5
2017-10-05T11:29:09.833Z,16.5
2017-10-05T11:30:12.607Z,16.5
2017-10-05T11:31:15.362Z,16.6
2017-10-05T11:32:17.796Z,16.6
2017-10-05T11:33:20.601Z,16.6
2017-10-05T11:34:23.034Z,16.7
2017-10-05T11:35:25.462Z,16.7
2017-10-05T11:36:28.245Z,16.7
2017-10-05T11:37:30.678Z,16.8
2017-10-05T11:38:33.103Z,16.8
2017-10-05T11:39:35.879Z,16.8
2017-10-05T11:40:38.316Z,16.9
2017-10-05T11:41:40.748Z,16.9
2017-10-05T11:42:43.173Z,17
2017-10-05T11:43:45.598Z,17
2017-10-05T11:44:48.034Z,17
2017-10-05T11:45:50.484Z,17
2017-10-05T11:46:52.916Z,17.1
2017-10-05T11:47:55.337Z,17.1
2017-10-05T11:48:57.774Z,17.1
2017-10-05T11:50:00.556Z,17.2
2017-10-05T11:51:02.982Z,17.2
2017-10-05T11:52:05.412Z,17.2
2017-10-05T11:53:07.843Z,17.2
2017-10-05T11:54:10.275Z,17.3
2017-10-05T11:55:12.718Z,17.3
2017-10-05T11:56:15.143Z,17.3
2017-10-05T11:57:17.567Z,17.4
2017-10-05T11:58:20.007Z,17.4
2017-10-05T11:59:22.775Z,17.5
2017-10-05T12:00:25.214Z,17.5
2017-10-05T12:01:27.645Z,17.5
2017-10-05T12:02:30.068Z,17.6
2017-10-05T12:03:32.500Z,17.7
2017-10-05T12:04:34.945Z,17.6
2017-10-05T12:05:37.377Z,17.6
2017-10-05T12:06:39.809Z,17.7
2017-10-05T12:07:42.240Z,17.7
2017-10-05T12:08:45.014Z,17.7
2017-10-05T12:09:47.447Z,17.7
2017-10-05T12:10:49.888Z,17.7
2017-10-05T12:11:52.647Z,17.7
2017-10-05T12:12:55.082Z,17.6
2017-10-05T12:13:57.527Z,17.7
2017-10-05T12:14:59.965Z,17.7
2017-10-05T12:16:02.405Z,17.6
2017-10-05T12:17:04.833Z,17.6
2017-10-05T12:18:07.271Z,17.6
2017-10-05T12:19:10.047Z,17.5
2017-10-05T12:20:12.480Z,17.5
2017-10-05T12:21:14.902Z,17.5
2017-10-05T12:22:17.333Z,17.5
2017-10-05T12:23:19.768Z,17.5
2017-10-05T12:24:22.197Z,17.5
2017-10-05T12:25:24.630Z,17.5
2017-10-05T12:26:27.063Z,17.5
2017-10-05T12:27:29.496Z,17.5
2017-10-05T12:28:31.942Z,17.5
2017-10-05T12:29:34.373Z,17.5
2017-10-05T12:30:37.151Z,17.5
2017-10-05T12:31:39.588Z,17.5
2017-10-05T12:32:42.025Z,17.5
2017-10-05T12:33:44.452Z,17.5
2017-10-05T12:34:46.883Z,17.5
2017-10-05T12:35:49.322Z,17.5
2017-10-05T12:36:51.748Z,17.5
2017-10-05T12:37:54.180Z,17.5
2017-10-05T12:38:56.618Z,17.5
2017-10-05T12:39:59.049Z,17.5
2017-10-05T12:41:01.476Z,17.4
2017-10-05T12:42:04.253Z,17.3
2017-10-05T12:43:06.676Z,17.2
2017-10-05T12:44:09.114Z,17.1
2017-10-05T12:45:11.552Z,17
2017-10-05T12:46:13.979Z,16.8
2017-10-05T12:47:16.412Z,16.6
2017-10-05T12:48:18.846Z,16.4
2017-10-05T12:49:21.271Z,16.3
2017-10-05T12:50:23.698Z,16.1
2017-10-05T12:51:26.128Z,15.9
2017-10-05T12:52:28.550Z,15.7
2017-10-05T12:53:30.977Z,15.6
2017-10-05T12:54:33.417Z,15.5
2017-10-05T12:55:35.837Z,15.3
2017-10-05T12:56:38.283Z,15.2
2017-10-05T12:57:40.713Z,15.1
2017-10-05T12:58:43.144Z,15
2017-10-05T12:59:45.912Z,14.9
2017-10-05T13:00:48.365Z,14.8
2017-10-05T13:01:50.767Z,14.7
2017-10-05T13:02:53.195Z,14.7
2017-10-05T13:03:55.628Z,14.6
2017-10-05T13:04:58.061Z,14.5
2017-10-05T13:06:00.484Z,14.5
2017-10-05T13:07:02.925Z,14.4
2017-10-05T13:08:05.361Z,14.4
2017-10-05T13:09:07.798Z,14.3
2017-10-05T13:10:10.230Z,14.2
2017-10-05T13:11:12.653Z,14.1
2017-10-05T13:12:15.117Z,14.1
2017-10-05T13:13:17.558Z,13.9
2017-10-05T13:14:19.988Z,13.9
2017-10-05T13:15:22.415Z,13.8
2017-10-05T13:16:24.848Z,13.7
2017-10-05T13:17:27.264Z,13.7
2017-10-05T13:18:29.701Z,13.6
2017-10-05T13:19:32.126Z,13.5
2017-10-05T13:20:34.552Z,13.5
2017-10-05T13:21:36.987Z,13.5
2017-10-05T13:22:39.411Z,13.5
2017-10-05T13:23:41.847Z,13.4
2017-10-05T13:24:44.284Z,13.4
2017-10-05T13:25:46.707Z,13.4
2017-10-05T13:26:49.132Z,13.4
2017-10-05T13:27:51.576Z,13.4
2017-10-05T13:28:53.988Z,13.3
2017-10-05T13:29:56.416Z,13.3
2017-10-05T13:30:58.845Z,13.4
2017-10-05T13:32:01.272Z,13.4
2017-10-05T13:33:03.700Z,13.4
2017-10-05T13:34:06.127Z,13.4
2017-10-05T13:35:08.561Z,13.4
2017-10-05T13:36:10.996Z,13.3
2017-10-05T13:37:13.428Z,13.3
2017-10-05T13:38:15.849Z,13.3
2017-10-05T13:39:18.283Z,13.3
2017-10-05T13:40:20.714Z,13.3
2017-10-05T13:41:23.140Z,13.2
2017-10-05T13:42:25.566Z,13.2
2017-10-05T13:43:28.004Z,13.2
2017-10-05T13:44:30.431Z,13.2
2017-10-05T13:45:32.867Z,13.1
2017-10-05T13:46:35.290Z,13.1
2017-10-05T13:47:37.725Z,13.1
2017-10-05T13:48:40.153Z,13.1
2017-10-05T13:49:42.598Z,13.1
2017-10-05T13:50:45.022Z,13
2017-10-05T13:51:47.453Z,13
2017-10-05T13:52:49.873Z,13
2017-10-05T13:53:53.341Z,13
2017-10-05T13:54:56.129Z,13